Time;durP1;ratioP1;P1;durP2;ratioP2;P2;SDS_P1;SDS_P2;PMS_P1;PMS_P2;Temp;Humidity;BMP_temperature;BMP_pressure;BME280_temperature;BME280_humidity;BME280_pressure;Samples;Min_cycle;Max_cycle;Signal;HPM_P1;HPM_P2
2022/06/15 00:00:45;;;;;;;7.30;4.03;;;12.40;99.90;12.30;97985.00;;;;4982346;28;87027;-61
2022/06/15 00:03:14;;;;;;;9.55;3.65;;;12.40;99.90;12.30;97978.00;;;;4980877;28;87438;-60
2022/06/15 00:05:44;;;;;;;8.43;4.43;;;12.40;99.90;12.30;97980.00;;;;4981946;28;87503;-60
2022/06/15 00:08:11;;;;;;;8.90;3.42;;;12.40;99.90;12.30;97979.00;;;;4981793;28;87380;-60
2022/06/15 00:10:41;;;;;;;10.93;4.00;;;12.40;99.90;12.20;97985.00;;;;4981810;28;87454;-60
2022/06/15 00:13:08;;;;;;;5.80;3.30;;;12.40;99.90;12.20;97978.00;;;;4984664;28;87117;-60
2022/06/15 00:15:35;;;;;;;8.82;3.80;;;12.40;99.90;12.30;97985.00;;;;4981141;28;88484;-61
2022/06/15 00:18:28;;;;;;;5.13;3.78;;;12.40;99.90;12.30;97985.00;;;;4981414;28;88359;-61
2022/06/15 00:20:57;;;;;;;6.35;4.05;;;12.40;99.90;12.30;97983.00;;;;4982310;28;86953;-61
2022/06/15 00:23:25;;;;;;;7.55;4.10;;;12.40;99.90;12.20;97978.00;;;;4981382;28;87521;-60
2022/06/15 00:25:52;;;;;;;7.75;3.45;;;12.40;99.90;12.30;97985.00;;;;4981369;28;87530;-61
2022/06/15 00:28:19;;;;;;;8.50;4.13;;;12.40;99.90;12.20;97978.00;;;;4981367;28;89582;-60
2022/06/15 00:30:49;;;;;;;9.38;4.80;;;12.30;99.90;12.20;97983.00;;;;4948093;28;87043;-60
2022/06/15 00:33:19;;;;;;;7.50;4.80;;;12.30;99.90;12.20;97989.00;;;;4964794;28;86308;-61
2022/06/15 00:36:02;;;;;;;6.57;4.05;;;12.30;99.90;12.10;97984.00;;;;4980414;28;88653;-61
2022/06/15 00:38:41;;;;;;;5.82;3.97;;;12.20;99.90;12.10;97993.00;;;;4967729;28;87305;-61
2022/06/15 00:41:14;;;;;;;5.50;3.85;;;12.20;99.90;12.00;97992.00;;;;4963493;28;87895;-61
2022/06/15 00:43:43;;;;;;;7.32;4.35;;;12.10;99.90;12.00;97992.00;;;;4981309;28;87075;-60
2022/06/15 00:46:30;;;;;;;6.50;3.70;;;12.10;99.90;11.90;97997.00;;;;4980955;28;87026;-60
2022/06/15 00:49:20;;;;;;;6.97;4.15;;;12.10;99.90;11.90;97994.00;;;;4953011;28;87542;-60
2022/06/15 00:51:59;;;;;;;7.50;3.75;;;12.00;99.90;11.90;97990.00;;;;4961901;28;86941;-60
2022/06/15 00:54:26;;;;;;;8.07;3.65;;;12.00;99.90;11.90;97992.00;;;;4964686;28;87478;-60
2022/06/15 00:56:53;;;;;;;5.70;3.45;;;12.00;99.90;11.80;97982.00;;;;4981391;28;88635;-60
2022/06/15 00:59:28;;;;;;;9.38;3.60;;;12.00;99.90;11.80;97991.00;;;;4964800;28;87582;-61
2022/06/15 01:01:54;;;;;;;8.32;4.13;;;11.90;99.90;11.80;97989.00;;;;4972975;28;86922;-61
2022/06/15 01:04:21;;;;;;;9.07;3.97;;;11.90;99.90;11.80;97979.00;;;;4985045;28;87052;-60
2022/06/15 01:06:59;;;;;;;6.07;3.40;;;11.90;99.90;11.80;97989.00;;;;4963533;28;89069;-61
2022/06/15 01:09:30;;;;;;;9.55;4.10;;;11.90;99.90;11.70;97984.00;;;;4981603;28;88268;-60
2022/06/15 01:12:13;;;;;;;6.63;3.15;;;11.90;99.90;11.70;97988.00;;;;4949462;28;87025;-61
2022/06/15 01:15:18;;;;;;;6.15;4.00;;;11.80;99.90;11.70;97990.00;;;;4963966;28;87216;-60
2022/06/15 01:17:56;;;;;;;8.50;3.80;;;11.80;99.90;11.70;97981.00;;;;4978916;28;87714;-60
2022/06/15 01:21:25;;;;;;;6.70;3.50;;;11.80;99.90;11.60;97986.00;;;;4980905;28;87242;-61
2022/06/15 01:24:19;;;;;;;7.60;4.20;;;11.70;99.90;11.60;97990.00;;;;4980982;28;87046;-61
2022/06/15 01:27:23;;;;;;;6.50;4.03;;;11.70;99.90;11.60;97981.00;;;;4938017;28;86329;-60
2022/06/15 01:30:13;;;;;;;6.07;3.67;;;11.70;99.90;11.60;97983.00;;;;4977613;28;88087;-60
2022/06/15 01:33:18;;;;;;;12.77;4.07;;;11.70;99.90;11.60;97987.00;;;;4980512;28;87485;-61
2022/06/15 01:35:58;;;;;;;9.95;3.80;;;11.70;99.90;11.60;97991.00;;;;4959983;28;87964;-61
2022/06/15 01:38:51;;;;;;;6.80;3.70;;;11.70;99.90;11.60;97983.00;;;;4976017;28;87003;-61
2022/06/15 01:41:33;;;;;;;8.93;3.40;;;11.70;99.90;11.60;97985.00;;;;4980600;28;87713;-60
2022/06/15 01:44:05;;;;;;;9.68;3.75;;;11.70;99.90;11.60;97983.00;;;;4978503;28;88082;-60
2022/06/15 01:46:32;;;;;;;8.82;3.67;;;11.80;99.90;11.70;97983.00;;;;4980874;28;88028;-60
2022/06/15 01:49:00;;;;;;;6.03;3.30;;;11.80;99.90;11.70;97981.00;;;;4963263;28;86984;-61
2022/06/15 01:51:44;;;;;;;7.55;3.78;;;11.80;99.90;11.90;97978.00;;;;4963651;28;87606;-60
2022/06/15 01:54:20;;;;;;;13.20;3.58;;;12.00;99.90;12.50;97974.00;;;;4988454;28;88038;-60
2022/06/15 01:56:49;;;;;;;9.25;3.13;;;12.40;99.90;13.20;97981.00;;;;4980548;28;86817;-60
2022/06/15 01:59:35;;;;;;;;;;;13.00;99.90;13.90;97973.00;;;;4965933;28;87020;-60
2022/06/15 02:02:15;;;;;;;6.97;2.55;;;13.70;99.90;14.70;97978.00;;;;4978342;28;88525;-60
2022/06/15 02:05:06;;;;;;;6.88;2.20;;;14.50;99.90;15.00;97977.00;;;;4982740;28;88461;-60
2022/06/15 02:07:54;;;;;;;9.07;2.28;;;14.90;99.90;15.60;97971.00;;;;4952791;28;87140;-60
2022/06/15 02:10:34;;;;;;;8.52;2.47;;;15.50;99.90;16.10;97982.00;;;;4983588;28;87016;-60
2022/06/15 02:13:10;;;;;;;4.88;2.28;;;16.00;99.90;16.50;97987.00;;;;4966670;28;86998;-60
2022/06/15 02:16:06;;;;;;;7.90;1.98;;;16.40;99.90;16.80;97972.00;;;;4937339;28;90097;-60
2022/06/15 02:18:35;;;;;;;5.10;2.10;;;16.60;99.90;17.50;97981.00;;;;4960455;28;96994;-60
2022/06/15 02:21:09;;;;;;;5.55;2.10;;;17.20;99.90;17.90;97982.00;;;;4967462;28;86483;-60
2022/06/15 02:23:38;;;;;;;6.70;2.17;;;17.60;99.90;18.40;97978.00;;;;4950612;28;87602;-60
2022/06/15 02:26:06;;;;;;;6.93;2.10;;;18.10;99.90;18.50;97972.00;;;;4941598;28;87382;-60
2022/06/15 02:28:39;;;;;;;5.72;2.00;;;18.20;99.90;18.40;97981.00;;;;5006419;28;87895;-60
2022/06/15 02:31:06;;;;;;;5.13;1.85;;;18.20;99.90;18.70;97972.00;;;;4966843;28;87339;-60
2022/06/15 02:33:39;;;;;;;7.90;1.63;;;18.60;99.90;18.80;97968.00;;;;4953074;28;88572;-60
2022/06/15 02:36:06;;;;;;;5.80;1.73;;;18.60;99.90;18.90;97973.00;;;;4975347;28;89772;-60
2022/06/15 02:38:34;;;;;;;4.63;1.63;;;18.60;99.90;19.30;97981.00;;;;4975687;28;87068;-60
2022/06/15 02:41:02;;;;;;;3.38;1.58;;;18.90;99.90;19.70;97975.00;;;;4981624;28;87023;-60
2022/06/15 02:43:31;;;;;;;8.95;1.90;;;19.30;99.90;19.70;97978.00;;;;4979271;28;87471;-60
2022/06/15 02:46:01;;;;;;;5.63;1.65;;;19.40;99.90;19.90;97986.00;;;;4982766;28;87640;-60
2022/06/15 02:48:29;;;;;;;5.70;2.08;;;19.60;99.90;19.80;97983.00;;;;4965597;28;87409;-60
2022/06/15 02:51:10;;;;;;;8.15;1.50;;;19.40;99.90;19.70;97981.00;;;;4966384;28;87118;-60
2022/06/15 02:53:41;;;;;;;6.18;1.92;;;19.40;99.90;20.10;97971.00;;;;4949763;28;88541;-60
2022/06/15 02:56:11;;;;;;;2.80;1.60;;;19.80;99.90;20.30;97983.00;;;;4982788;28;88794;-60
2022/06/15 02:58:44;;;;;;;7.97;2.00;;;20.10;99.90;20.30;97983.00;;;;4949920;28;87548;-60
2022/06/15 03:01:11;;;;;;;5.30;1.50;;;19.90;99.90;20.00;97979.00;;;;4960637;28;86932;-60
2022/06/15 03:03:40;;;;;;;3.75;1.50;;;19.60;99.90;19.80;97979.00;;;;4974133;28;88567;-60
2022/06/15 03:06:19;;;;;;;5.10;1.45;;;19.30;99.90;19.50;97989.00;;;;4965271;28;87580;-61
2022/06/15 03:08:47;;;;;;;4.43;1.23;;;19.20;99.90;19.80;97987.00;;;;4965315;28;87019;-60
2022/06/15 03:11:39;;;;;;;3.58;1.55;;;19.40;99.90;20.20;97992.00;;;;4967817;28;86389;-60
2022/06/15 03:14:10;;;;;;;3.67;1.23;;;19.80;99.90;19.70;97994.00;;;;4978115;28;87184;-59
2022/06/15 03:16:38;;;;;;;8.45;1.58;;;19.30;99.90;19.40;97991.00;;;;4964858;28;88405;-60
2022/06/15 03:19:06;;;;;;;10.63;1.90;;;19.10;99.90;19.20;97991.00;;;;4970899;28;88004;-60
2022/06/15 03:21:32;;;;;;;5.60;1.30;;;18.90;99.90;19.20;97989.00;;;;4966031;28;87200;-60
2022/06/15 03:23:58;;;;;;;6.38;1.88;;;18.90;99.90;19.60;97986.00;;;;4965206;28;87322;-59
2022/06/15 03:26:24;;;;;;;9.00;1.52;;;19.10;99.90;19.60;97990.00;;;;4965429;28;87051;-60
2022/06/15 03:28:51;;;;;;;4.43;1.50;;;19.00;99.90;19.40;97991.00;;;;4965584;28;86982;-60
2022/06/15 03:31:19;;;;;;;4.43;1.60;;;19.00;99.90;19.30;97998.00;;;;4968688;28;87031;-59
2022/06/15 03:33:46;;;;;;;12.38;2.10;;;18.80;99.90;18.90;97995.00;;;;4965076;28;88522;-60
2022/06/15 03:36:17;;;;;;;7.63;1.83;;;18.50;99.90;18.40;97999.00;;;;4965414;28;87617;-60
2022/06/15 03:38:44;;;;;;;4.25;1.80;;;18.00;99.90;17.50;98001.00;;;;4964893;28;87395;-60
2022/06/15 03:41:18;;;;;;;8.23;1.75;;;17.10;99.90;17.30;97997.00;;;;4964617;28;87159;-60
2022/06/15 03:43:46;;;;;;;6.38;1.70;;;17.00;99.90;17.50;97999.00;;;;4963724;28;88441;-60
2022/06/15 03:46:14;;;;;;;4.45;1.67;;;17.00;99.90;17.40;98009.00;;;;4965234;28;88447;-60
2022/06/15 03:48:42;;;;;;;5.68;1.63;;;17.10;99.90;17.40;98004.00;;;;4948326;28;87105;-60
2022/06/15 03:51:09;;;;;;;5.05;1.73;;;17.00;99.90;17.70;97999.00;;;;4981505;28;86992;-60
2022/06/15 03:53:47;;;;;;;4.20;1.30;;;17.30;99.90;17.70;97998.00;;;;4964621;28;87780;-60
2022/06/15 03:56:13;;;;;;;6.72;1.33;;;17.30;99.90;18.10;98001.00;;;;4964492;28;87730;-60
2022/06/15 03:58:40;;;;;;;8.18;1.80;;;17.60;99.90;18.50;98003.00;;;;4965363;28;88077;-60
2022/06/15 04:01:06;;;;;;;12.68;2.25;;;18.10;99.90;18.60;97997.00;;;;4965413;28;86700;-59
2022/06/15 04:03:33;;;;;;;7.60;1.77;;;18.20;99.90;18.50;98008.00;;;;4964972;28;87672;-59
2022/06/15 04:06:05;;;;;;;4.07;1.40;;;18.10;99.90;18.60;97996.00;;;;4966697;28;88208;-59
2022/06/15 04:08:39;;;;;;;6.70;1.73;;;18.20;99.90;18.60;98000.00;;;;4972306;28;87978;-60
2022/06/15 04:14:24;;;;;;;4.78;1.42;;;18.10;99.90;18.60;97998.00;;;;4975850;28;88053;-60
2022/06/15 04:17:03;;;;;;;6.68;1.40;;;18.10;99.90;18.30;97998.00;;;;4963772;28;88280;-61
2022/06/15 04:22:45;;;;;;;11.85;1.65;;;17.70;99.90;18.20;98002.00;;;;4964006;28;88049;-59
2022/06/15 04:25:12;;;;;;;10.32;1.77;;;17.70;99.90;18.20;98006.00;;;;4965901;28;87696;-61
2022/06/15 04:27:38;;;;;;;5.03;1.42;;;17.80;99.90;18.70;98001.00;;;;4976901;28;88964;-60
2022/06/15 04:30:12;;;;;;;3.67;1.17;;;18.10;99.90;19.00;98008.00;;;;4964119;28;87599;-60
2022/06/15 04:32:38;;;;;;;4.90;1.65;;;18.50;99.90;18.90;98008.00;;;;4965052;28;86999;-59
2022/06/15 04:35:07;;;;;;;11.23;1.60;;;18.40;99.90;19.00;98016.00;;;;4963332;28;90695;-60
2022/06/15 04:37:37;;;;;;;5.20;1.23;;;18.50;99.90;18.60;98014.00;;;;4963731;28;88297;-61
2022/06/15 04:40:15;;;;;;;4.13;1.30;;;18.20;99.90;18.50;98013.00;;;;4962990;28;87412;-60
2022/06/15 04:42:42;;;;;;;6.05;1.40;;;18.00;99.90;18.20;98017.00;;;;4998427;28;88105;-59
2022/06/15 04:45:11;;;;;;;5.90;1.20;;;17.80;99.90;18.20;98005.00;;;;4980419;28;87732;-59
2022/06/15 04:47:49;;;;;;;4.00;1.10;;;17.90;99.90;18.50;98014.00;;;;4963088;28;88602;-60
2022/06/15 04:50:17;;;;;;;8.18;1.15;;;18.10;99.90;19.10;98014.00;;;;4963436;28;87074;-60
2022/06/15 04:52:46;;;;;;;7.57;1.60;;;18.60;99.90;19.40;98021.00;;;;4977429;28;86302;-60
2022/06/15 04:55:18;;;;;;;4.18;1.02;;;18.70;99.90;19.30;98021.00;;;;4979748;28;90259;-61
2022/06/15 04:57:46;;;;;;;8.32;1.30;;;18.80;99.90;19.70;98017.00;;;;4962375;28;88189;-60
2022/06/15 05:00:17;;;;;;;5.05;1.10;;;19.00;99.90;19.80;98017.00;;;;4968265;28;88022;-60
2022/06/15 05:02:45;;;;;;;9.00;1.63;;;18.90;99.90;19.70;98026.00;;;;4980395;28;87051;-60
2022/06/15 05:05:14;;;;;;;2.78;1.05;;;19.00;99.90;19.80;98014.00;;;;4979966;28;87672;-60
2022/06/15 05:07:42;;;;;;;6.53;1.08;;;19.10;99.90;19.60;98015.00;;;;4963870;28;87244;-60
2022/06/15 05:10:16;;;;;;;1.35;0.98;;;18.90;99.90;19.20;98013.00;;;;4962597;28;87476;-60
2022/06/15 05:12:42;;;;;;;4.97;1.30;;;18.70;99.90;19.60;98025.00;;;;4969998;28;86951;-60
2022/06/15 05:15:10;;;;;;;5.60;1.13;;;18.90;99.90;19.30;98013.00;;;;5001198;28;87675;-61
2022/06/15 05:17:41;;;;;;;2.80;0.80;;;18.70;99.90;18.70;98009.00;;;;4979680;28;88730;-60
2022/06/15 05:20:10;;;;;;;2.03;1.00;;;18.30;99.90;19.40;98024.00;;;;4969822;28;87458;-60
2022/06/15 05:22:38;;;;;;;7.90;1.13;;;18.80;99.90;20.00;98024.00;;;;4962343;28;87063;-60
2022/06/15 05:25:08;;;;;;;9.35;1.17;;;19.30;99.90;20.10;98017.00;;;;4966271;28;88869;-60
2022/06/15 05:27:38;;;;;;;4.85;0.90;;;19.50;99.90;20.10;98022.00;;;;4963642;28;88243;-60
2022/06/15 05:30:06;;;;;;;2.45;1.08;;;19.60;99.90;20.60;98024.00;;;;4974648;28;86965;-60
2022/06/15 05:32:33;;;;;;;7.43;0.95;;;20.00;99.90;20.50;98030.00;;;;4979719;28;87001;-60
2022/06/15 05:35:01;;;;;;;8.85;1.33;;;19.70;99.90;20.60;98028.00;;;;4963400;28;88235;-60
2022/06/15 05:37:31;;;;;;;6.18;1.30;;;19.90;99.90;20.20;98042.00;;;;4962974;28;87335;-60
2022/06/15 05:39:58;;;;;;;6.45;0.98;;;19.60;99.90;19.10;98029.00;;;;4999247;28;87758;-60
2022/06/15 05:42:29;;;;;;;5.10;1.02;;;18.60;99.90;19.00;98043.00;;;;4965991;28;86475;-61
2022/06/15 05:45:04;;;;;;;4.40;0.80;;;18.30;99.90;18.80;98049.00;;;;4966805;28;90318;-62
2022/06/15 05:47:31;;;;;;;2.13;1.17;;;18.10;99.90;18.50;98041.00;;;;4965742;28;87224;-60
2022/06/15 05:50:15;;;;;;;4.30;1.02;;;17.80;99.90;18.00;98049.00;;;;4952122;28;87922;-61
2022/06/15 05:53:08;;;;;;;6.43;1.50;;;17.50;99.90;17.50;98048.00;;;;4971737;28;88207;-60
2022/06/15 05:55:34;;;;;;;6.63;1.13;;;17.10;99.90;16.90;98046.00;;;;4983680;28;87863;-60
2022/06/15 05:58:00;;;;;;;5.78;0.82;;;16.60;99.90;16.60;98049.00;;;;4983843;28;87260;-60
2022/06/15 06:00:26;;;;;;;4.25;1.08;;;16.30;99.90;16.30;98045.00;;;;4983639;28;86889;-61
2022/06/15 06:02:52;;;;;;;2.45;0.95;;;16.00;99.90;16.00;98055.00;;;;4984322;28;86930;-61
2022/06/15 06:05:18;;;;;;;6.38;1.30;;;15.70;99.90;15.80;98032.00;;;;4983504;28;87376;-60
2022/06/15 06:07:45;;;;;;;1.80;0.75;;;15.70;99.90;16.60;98041.00;;;;4983364;28;88303;-60
2022/06/15 06:10:11;;;;;;;2.95;1.10;;;16.30;99.90;17.20;98031.00;;;;4982068;28;87046;-60
2022/06/15 06:12:37;;;;;;;6.07;1.05;;;16.80;99.90;17.50;98047.00;;;;4986050;28;88952;-60
2022/06/15 06:15:05;;;;;;;2.45;0.98;;;17.00;99.90;17.30;98041.00;;;;4981846;28;88884;-60
2022/06/15 06:17:31;;;;;;;3.92;0.90;;;16.80;99.90;17.00;98038.00;;;;4988729;28;88187;-62
2022/06/15 06:19:57;;;;;;;5.55;1.30;;;16.60;99.90;16.60;98042.00;;;;4983033;28;86961;-61
2022/06/15 06:22:23;;;;;;;4.35;0.70;;;16.30;99.90;16.80;98043.00;;;;4983528;28;87537;-60
2022/06/15 06:24:50;;;;;;;3.25;0.90;;;16.40;99.90;17.00;98030.00;;;;4965611;28;87956;-61
2022/06/15 06:27:17;;;;;;;6.28;1.00;;;16.60;99.90;17.20;98032.00;;;;4983227;28;87657;-61
2022/06/15 06:29:43;;;;;;;2.05;1.08;;;16.80;99.90;17.10;98032.00;;;;4983172;28;86853;-61
2022/06/15 06:32:13;;;;;;;6.72;0.80;;;16.70;99.90;16.80;98036.00;;;;4982733;28;86581;-61
2022/06/15 06:34:39;;;;;;;5.03;0.70;;;16.60;99.90;16.50;98047.00;;;;4983273;28;87742;-61
2022/06/15 06:37:07;;;;;;;3.30;0.98;;;16.20;99.90;16.30;98047.00;;;;4982766;28;86916;-61
2022/06/15 06:39:35;;;;;;;3.30;0.80;;;16.10;99.90;16.30;98048.00;;;;4982458;28;87960;-60
2022/06/15 06:42:04;;;;;;;4.82;1.10;;;16.00;99.90;16.40;98049.00;;;;4985044;28;87419;-61
2022/06/15 06:44:34;;;;;;;6.10;1.30;;;16.20;99.90;16.70;98046.00;;;;4981591;28;87730;-62
2022/06/15 06:47:00;;;;;;;4.90;0.88;;;16.50;99.90;16.40;98037.00;;;;4982075;28;87420;-61
2022/06/15 06:49:27;;;;;;;6.18;0.90;;;16.10;99.90;16.10;98038.00;;;;4981994;28;86875;-61
2022/06/15 06:51:53;;;;;;;4.13;0.88;;;15.90;99.90;15.80;98032.00;;;;4982423;28;87045;-61
2022/06/15 06:54:22;;;;;;;3.65;0.90;;;15.70;99.90;15.60;98044.00;;;;4982368;28;88760;-61
2022/06/15 06:56:48;;;;;;;3.15;1.38;;;15.50;99.90;15.60;98046.00;;;;4983194;28;87284;-60
2022/06/15 06:59:16;;;;;;;4.20;0.80;;;15.50;99.90;15.70;98024.00;;;;4983295;28;86939;-62
2022/06/15 07:01:45;;;;;;;5.45;0.70;;;15.60;99.90;15.80;98051.00;;;;4981833;28;87224;-60
2022/06/15 07:04:12;;;;;;;2.35;0.80;;;15.60;99.90;15.80;98042.00;;;;4982080;28;88461;-62
2022/06/15 07:06:40;;;;;;;3.67;0.90;;;15.80;99.90;16.30;98046.00;;;;4982562;28;89454;-61
2022/06/15 07:09:06;;;;;;;4.03;0.80;;;16.30;99.90;16.80;98043.00;;;;4982829;28;86953;-62
2022/06/15 07:11:32;;;;;;;2.95;0.88;;;16.70;99.90;16.90;98056.00;;;;4988369;28;87156;-62
2022/06/15 07:13:59;;;;;;;2.53;0.70;;;16.70;99.90;17.00;98053.00;;;;4984087;28;87548;-57
2022/06/15 07:16:26;;;;;;;5.72;0.90;;;16.70;99.90;17.10;98069.00;;;;4982732;28;87373;-58
2022/06/15 07:18:53;;;;;;;5.35;1.00;;;16.80;99.90;17.10;98059.00;;;;4983078;28;87045;-56
2022/06/15 07:21:26;;;;;;;2.80;0.80;;;16.80;99.90;17.20;98061.00;;;;4983879;28;86323;-57
2022/06/15 07:23:56;;;;;;;4.45;0.90;;;16.90;99.90;16.90;98076.00;;;;4989358;28;87032;-56
2022/06/15 07:26:28;;;;;;;2.42;0.80;;;16.60;99.90;17.00;98070.00;;;;4982569;28;88420;-59
2022/06/15 07:28:54;;;;;;;3.13;0.82;;;16.80;99.90;17.00;98079.00;;;;4984787;28;88030;-56
2022/06/15 07:31:27;;;;;;;0.90;0.65;;;16.70;99.90;17.00;98078.00;;;;4982580;28;86968;-57
2022/06/15 07:33:54;;;;;;;3.05;0.70;;;16.60;99.90;17.10;98069.00;;;;4999230;28;87708;-56
2022/06/15 07:36:23;;;;;;;4.80;1.08;;;16.70;99.90;17.30;98076.00;;;;4982349;28;87216;-57
2022/06/15 07:38:54;;;;;;;4.38;0.90;;;17.00;99.90;17.50;98081.00;;;;4977150;28;87393;-58
2022/06/15 07:41:22;;;;;;;10.10;1.08;;;17.30;99.90;17.80;98080.00;;;;4974397;28;86877;-60
2022/06/15 07:43:49;;;;;;;1.70;0.82;;;17.40;99.90;17.80;98069.00;;;;4980723;28;88084;-57
2022/06/15 07:46:16;;;;;;;3.50;1.08;;;17.60;99.90;17.90;98076.00;;;;4980901;28;87198;-58
2022/06/15 07:51:44;;;;;;;3.25;0.82;;;17.70;99.90;17.60;98073.00;;;;4982165;28;87023;-58
2022/06/15 07:54:13;;;;;;;4.35;0.90;;;17.40;99.90;17.50;98075.00;;;;4981093;28;88797;-58
2022/06/15 07:56:41;;;;;;;2.67;1.20;;;17.40;99.90;17.30;98076.00;;;;4982736;28;88291;-58
2022/06/15 07:59:07;;;;;;;3.20;0.90;;;17.20;99.90;17.40;98059.00;;;;4982043;28;86891;-58
2022/06/15 08:01:34;;;;;;;9.38;1.15;;;17.30;99.90;17.50;98074.00;;;;4981960;28;87548;-58
2022/06/15 08:04:01;;;;;;;5.03;1.20;;;17.40;99.90;17.80;98066.00;;;;4986098;28;87844;-57
2022/06/15 08:06:29;;;;;;;3.25;0.70;;;17.70;99.90;17.90;98081.00;;;;4981524;28;87320;-57
2022/06/15 08:08:56;;;;;;;3.13;0.73;;;17.80;99.90;18.10;98069.00;;;;4982104;28;86915;-58
2022/06/15 08:11:22;;;;;;;2.72;1.00;;;18.00;99.90;18.40;98081.00;;;;4981911;28;86316;-57
2022/06/15 08:13:49;;;;;;;3.53;0.90;;;18.20;99.90;18.60;98065.00;;;;4976098;28;87461;-57
2022/06/15 08:16:18;;;;;;;4.70;1.30;;;18.30;99.90;18.50;98087.00;;;;4980617;28;87385;-58
2022/06/15 08:18:51;;;;;;;5.15;1.10;;;18.20;99.90;18.40;98093.00;;;;4982085;28;87949;-59
2022/06/15 08:21:22;;;;;;;3.58;1.23;;;18.00;99.90;18.50;98093.00;;;;4964732;28;87125;-58
2022/06/15 08:23:53;;;;;;;5.50;1.45;;;18.10;99.90;18.50;98095.00;;;;4972398;28;88109;-58
2022/06/15 08:26:29;;;;;;;5.88;1.40;;;18.10;99.90;18.40;98097.00;;;;4970676;28;87521;-58
2022/06/15 08:29:00;;;;;;;6.13;0.93;;;18.00;99.90;18.30;98103.00;;;;4979416;28;86926;-58
2022/06/15 08:31:27;;;;;;;1.92;0.80;;;17.80;99.90;18.00;98107.00;;;;4964715;28;87183;-58
2022/06/15 08:33:53;;;;;;;6.28;0.90;;;17.70;99.90;18.00;98102.00;;;;4984695;28;87851;-57
2022/06/15 08:36:20;;;;;;;7.82;0.90;;;17.70;99.90;17.90;98098.00;;;;4980191;28;88053;-58
2022/06/15 08:38:47;;;;;;;3.05;0.73;;;17.60;99.90;18.20;98095.00;;;;4981214;28;87135;-58
2022/06/15 08:41:34;;;;;;;3.47;0.90;;;17.90;99.90;18.30;98110.00;;;;4980653;28;87432;-58
2022/06/15 08:44:43;;;;;;;5.43;1.10;;;18.10;99.90;18.20;98106.00;;;;4975745;28;87969;-58
2022/06/15 08:47:50;;;;;;;4.20;1.20;;;18.10;99.90;18.10;98099.00;;;;4979778;28;88299;-60
2022/06/15 08:50:39;;;;;;;8.07;0.95;;;17.90;99.90;18.10;98098.00;;;;4978157;28;87352;-60
2022/06/15 08:53:14;;;;;;;2.97;0.73;;;17.80;99.90;18.00;98114.00;;;;4983179;28;87313;-60
2022/06/15 08:55:57;;;;;;;4.55;0.90;;;17.80;99.90;18.00;98102.00;;;;4984225;28;89196;-60
2022/06/15 08:58:51;;;;;;;4.97;0.65;;;17.90;99.90;18.10;98103.00;;;;4980029;28;87370;-60
2022/06/15 09:01:27;;;;;;;3.00;1.00;;;18.00;99.90;18.30;98111.00;;;;4964128;28;87516;-59
2022/06/15 09:04:37;;;;;;;1.33;0.68;;;18.00;99.90;18.60;98114.00;;;;4980997;28;86336;-58
2022/06/15 09:07:45;;;;;;;3.42;0.80;;;18.20;99.90;18.70;98100.00;;;;4977798;28;87185;-53
2022/06/15 09:10:44;;;;;;;5.50;0.98;;;18.40;99.90;18.60;98107.00;;;;4987319;28;89214;-55
2022/06/15 09:13:50;;;;;;;5.20;1.52;;;18.30;99.90;18.40;98103.00;;;;4979609;28;89814;-56
2022/06/15 09:16:24;;;;;;;4.72;1.50;;;18.10;99.90;18.30;98119.00;;;;4981244;28;87815;-52
2022/06/15 09:19:11;;;;;;;1.52;0.93;;;18.20;99.90;18.40;98122.00;;;;4995397;28;87626;-56
2022/06/15 09:22:04;;;;;;;2.50;0.75;;;18.30;99.90;18.60;98120.00;;;;4974628;28;87126;-56
2022/06/15 09:24:47;;;;;;;1.60;0.90;;;18.50;99.90;18.70;98112.00;;;;4962844;28;87234;-56
2022/06/15 09:27:37;;;;;;;4.65;0.80;;;18.60;99.90;18.80;98102.00;;;;4968319;28;87063;-57
2022/06/15 09:30:17;;;;;;;7.35;0.90;;;18.70;99.90;19.10;98114.00;;;;4973790;28;87737;-54
2022/06/15 09:32:54;;;;;;;4.97;0.70;;;19.00;99.90;19.50;98122.00;;;;4967104;28;87409;-56
2022/06/15 09:35:34;;;;;;;3.25;1.05;;;19.20;99.90;19.50;98120.00;;;;4967108;28;87082;-57
2022/06/15 09:38:04;;;;;;;5.30;1.05;;;19.20;99.90;19.40;98119.00;;;;4966562;28;86889;-55
2022/06/15 09:40:55;;;;;;;3.67;0.73;;;19.10;99.90;19.40;98126.00;;;;4983491;28;90847;-55
2022/06/15 09:43:38;;;;;;;6.00;1.30;;;19.00;99.90;19.30;98131.00;;;;4982900;28;88032;-60
2022/06/15 09:46:45;;;;;;;6.25;1.15;;;18.90;99.90;19.00;98135.00;;;;4982316;28;87019;-61
2022/06/15 09:50:00;;;;;;;7.53;1.13;;;18.90;99.90;19.00;98126.00;;;;4982817;28;87026;-61
2022/06/15 09:52:34;;;;;;;5.50;0.80;;;18.60;99.90;19.20;98137.00;;;;4983626;28;87346;-61
2022/06/15 09:55:11;;;;;;;5.00;0.93;;;18.70;99.90;19.00;98125.00;;;;4983666;28;88360;-61
2022/06/15 09:57:39;;;;;;;4.10;0.98;;;18.70;99.90;19.50;98136.00;;;;4966608;28;87151;-61
2022/06/15 10:00:10;;;;;;;3.75;0.75;;;19.20;99.90;19.90;98143.00;;;;4983300;28;86222;-60
2022/06/15 10:02:44;;;;;;;4.60;0.90;;;19.60;99.90;19.60;98130.00;;;;4964066;28;87635;-60
2022/06/15 10:05:24;;;;;;;3.20;0.80;;;19.30;99.90;19.50;98135.00;;;;4977197;28;87330;-60
2022/06/15 10:07:55;;;;;;;7.10;1.08;;;19.20;99.90;19.70;98133.00;;;;4972608;28;87943;-60
2022/06/15 10:10:28;;;;;;;4.38;1.17;;;19.30;99.90;19.60;98133.00;;;;4984049;28;86985;-61
2022/06/15 10:13:15;;;;;;;4.32;1.00;;;19.30;99.90;19.30;98144.00;;;;4970198;28;87937;-61
2022/06/15 10:15:41;;;;;;;3.35;1.20;;;18.90;99.90;19.20;98149.00;;;;4981407;28;88663;-61
2022/06/15 10:18:36;;;;;;;8.70;1.00;;;18.80;99.90;19.20;98151.00;;;;4983357;28;86980;-61
2022/06/15 10:21:14;;;;;;;5.75;0.90;;;18.90;99.90;19.40;98150.00;;;;4983980;28;86908;-61
2022/06/15 10:23:53;;;;;;;3.75;0.90;;;19.00;99.90;19.20;98148.00;;;;4983594;28;88039;-61
2022/06/15 10:26:32;;;;;;;5.38;0.80;;;18.90;99.90;19.30;98160.00;;;;4966512;28;88387;-61
2022/06/15 10:29:24;;;;;;;3.25;0.90;;;18.90;99.90;19.10;98168.00;;;;4983786;28;86973;-61
2022/06/15 10:32:11;;;;;;;5.63;1.15;;;18.70;99.90;19.40;98169.00;;;;4983564;28;86951;-60
2022/06/15 10:34:46;;;;;;;5.72;1.05;;;19.00;99.90;19.40;98162.00;;;;4982447;28;89588;-61
2022/06/15 10:37:34;;;;;;;1.92;0.77;;;19.00;99.90;19.40;98172.00;;;;4965862;28;88310;-62
2022/06/15 10:40:29;;;;;;;2.92;1.00;;;19.10;99.90;19.50;98169.00;;;;4955378;28;87417;-61
2022/06/15 10:43:16;;;;;;;3.85;0.95;;;19.10;99.90;19.30;98158.00;;;;4977455;28;87101;-61
2022/06/15 10:46:01;;;;;;;2.92;0.80;;;18.90;99.90;19.50;98165.00;;;;4981982;28;87616;-61
2022/06/15 10:48:54;;;;;;;5.00;1.52;;;19.20;99.90;19.90;98161.00;;;;4971823;28;88456;-60
2022/06/15 10:51:37;;;;;;;3.58;1.00;;;19.60;99.90;20.00;98156.00;;;;4983418;28;87030;-61
2022/06/15 11:02:06;;;;;;;7.00;1.05;;;19.70;99.90;19.90;98166.00;;;;4965888;28;86389;-60
2022/06/15 11:03:33;;;;;;;3.15;0.75;;;19.60;99.90;19.80;98181.00;;;;4962219;28;87881;-60
2022/06/15 11:05:59;;;;;;;5.38;0.93;;;19.40;99.90;19.70;98170.00;;;;4976587;28;87325;-60
2022/06/15 11:08:32;;;;;;;3.75;0.93;;;19.40;99.90;19.90;98173.00;;;;4982362;28;87593;-61
2022/06/15 11:11:26;;;;;;;3.75;0.95;;;19.50;99.90;19.90;98166.00;;;;4965305;28;88543;-61
2022/06/15 11:14:07;;;;;;;2.40;1.10;;;19.40;99.90;19.70;98160.00;;;;4978872;28;87359;-60
2022/06/15 11:19:26;;;;;;;5.32;1.60;;;19.20;99.90;19.50;98159.00;;;;4982359;28;88651;-60
2022/06/15 11:22:04;;;;;;;2.67;1.05;;;19.30;99.90;19.60;98168.00;;;;4982517;28;87346;-62
2022/06/15 11:25:09;;;;;;;3.03;0.90;;;19.40;99.90;19.40;98154.00;;;;4965465;28;87028;-61
2022/06/15 11:27:47;;;;;;;7.05;0.95;;;19.30;99.90;19.60;98158.00;;;;4975659;28;87555;-60
2022/06/15 11:30:32;;;;;;;4.05;1.13;;;19.50;99.90;19.60;98157.00;;;;4982205;28;87889;-61
2022/06/15 11:33:57;;;;;;;2.45;0.80;;;19.50;99.90;19.80;98166.00;;;;4982898;28;88482;-61
2022/06/15 11:36:43;;;;;;;4.57;0.90;;;19.50;99.90;20.00;98169.00;;;;4886204;28;87042;-62
2022/06/15 11:39:55;;;;;;;4.20;1.17;;;19.70;99.90;20.00;98170.00;;;;4958034;28;87006;-62
2022/06/15 11:42:22;;;;;;;5.68;1.10;;;19.60;99.90;19.90;98178.00;;;;4960787;28;87674;-61
2022/06/15 11:44:48;;;;;;;5.15;1.05;;;19.50;99.90;19.80;98179.00;;;;4981468;28;87233;-61
2022/06/15 11:47:55;;;;;;;9.00;1.50;;;19.50;99.90;19.80;98181.00;;;;4981766;28;86933;-61